Time;durP1;ratioP1;P1;durP2;ratioP2;P2;SDS_P1;SDS_P2;PMS_P1;PMS_P2;Temp;Humidity;BMP_temperature;BMP_pressure;BME280_temperature;BME280_humidity;BME280_pressure;Samples;Min_cycle;Max_cycle;Signal;HPM_P1;HPM_P2
2023/06/21 19:54:20;;;;;;;;;;;;;;;;;;5030524;28;7130;-90
2023/06/21 19:56:46;;;;;;;;;;;;;;;;;;5023531;28;8439;-85
2023/06/21 19:59:12;;;;;;;;;;;;;;;;;;5006559;28;7280;-82
2023/06/21 20:01:37;;;;;;;;;;;;;;;;;;5007208;28;8401;-87
2023/06/21 20:04:03;;;;;;;;;;;;;;;;;;5009082;28;8445;-85
2023/06/21 20:06:29;;;;;;;;;;;;;;;;;;5009421;28;8711;-83
2023/06/21 20:08:54;;;;;;;;;;;;;;;;;;5017243;28;8433;-84
2023/06/21 20:11:20;;;;;;;;;;;;;;;;;;5007633;28;8467;-84
2023/06/21 20:13:45;;;;;;;;;;;;;;;;;;5009060;28;7242;-85
2023/06/21 20:16:11;;;;;;;;;;;;;;;;;;5009481;28;8509;-85
2023/06/21 20:18:37;;;;;;;;;;;;;;;;;;5009455;28;9278;-84
2023/06/21 20:21:04;;;;;;;;;;;;;;;;;;5009658;28;7234;-84
2023/06/21 20:23:29;;;;;;;;;;;;;;;;;;5008899;28;7455;-85
2023/06/21 20:25:55;;;;;;;;;;;;;;;;;;5009520;28;8437;-84
2023/06/21 20:28:20;;;;;;;;;;;;;;;;;;5009074;28;8716;-86
2023/06/21 20:30:46;;;;;;;;;;;;;;;;;;5005733;28;8867;-86
2023/06/21 20:33:12;;;;;;;;;;;;;;;;;;5005874;28;8759;-85
2023/06/21 20:35:39;;;;;;;;;;;;;;;;;;5006089;28;8815;-84
2023/06/21 20:38:05;;;;;;;;;;;;;;;;;;5007205;28;7115;-85
2023/06/21 20:40:30;;;;;;;;;;;;;;;;;;5016975;28;8774;-84
2023/06/21 20:42:59;;;;;;;;;;;;;;;;;;5025008;28;8577;-83
2023/06/21 20:45:30;;;;;;;;;;;;;;;;;;5025177;28;7336;-81
2023/06/21 20:47:57;;;;;;;;;;;;;;;;;;5021067;28;9133;-81
2023/06/21 20:50:23;;;;;;;;;;;;;;;;;;4989017;28;8561;-82
2023/06/21 20:52:49;;;;;;;;;;;;;;;;;;4989222;28;8823;-84
2023/06/21 20:55:24;;;;;;;;;;;;;;;;;;4989294;28;8955;-80
2023/06/21 20:57:56;;;;;;;;;;;;;;;;;;4998575;28;8890;-81
2023/06/21 21:00:23;;;;;;;;;;;;;;;;;;5001841;28;8463;-81
2023/06/21 21:02:49;;;;;;;;;;;;;;;;;;4988343;28;8506;-81
2023/06/21 21:05:15;;;;;;;;;;;;;;;;;;4983816;28;8517;-81
2023/06/21 21:07:40;;;;;;;;;;;;;;;;;;4994327;28;8726;-81
2023/06/21 21:10:06;;;;;;;;;;;;;;;;;;5003123;28;8515;-81
2023/06/21 21:12:32;;;;;;;;;;;;;;;;;;4988831;28;8570;-81
2023/06/21 21:14:58;;;;;;;;;;;;;;;;;;4996187;28;8515;-80
2023/06/21 21:17:23;;;;;;;;;;;;;;;;;;5002465;28;8453;-82
2023/06/21 21:19:49;;;;;;;;;;;;;;;;;;4998470;28;8647;-80
2023/06/21 21:22:14;;;;;;;;;;;;;;;;;;4990817;28;9539;-80
2023/06/21 21:24:40;;;;;;;;;;;;;;;;;;4991838;28;8698;-80
2023/06/21 21:27:06;;;;;;;;;;;;;;;;;;4991840;28;8565;-81
2023/06/21 21:29:32;;;;;;;;;;;;;;;;;;4976673;28;6999;-81
2023/06/21 21:31:58;;;;;;;;;;;;;;;;;;4991598;28;8508;-80
2023/06/21 21:34:24;;;;;;;;;;;;;;;;;;4991972;28;7246;-80
2023/06/21 21:36:52;;;;;;;;;;;;;;;;;;4991339;28;9151;-81
2023/06/21 21:39:18;;;;;;;;;;;;;;;;;;4991717;28;7267;-80
2023/06/21 21:41:43;;;;;;;;;;;;;;;;;;4991643;28;8487;-80
2023/06/21 21:44:08;;;;;;;;;;;;;;;;;;4992283;28;8509;-80
2023/06/21 21:46:34;;;;;;;;;;;;;;;;;;4991943;28;8820;-82
2023/06/21 21:48:59;;;;;;;;;;;;;;;;;;4994453;28;8674;-79
2023/06/21 21:51:25;;;;;;;;;;;;;;;;;;4994274;28;7130;-79
2023/06/21 21:53:50;;;;;;;;;;;;;;;;;;4994399;28;8595;-79
2023/06/21 21:56:16;;;;;;;;;;;;;;;;;;4994184;28;8791;-79
2023/06/21 21:58:41;;;;;;;;;;;;;;;;;;5010818;28;8853;-79
2023/06/21 22:01:07;;;;;;;;;;;;;;;;;;4994601;28;8818;-79
2023/06/21 22:03:32;;;;;;;;;;;;;;;;;;4994078;28;8490;-79
2023/06/21 22:05:58;;;;;;;;;;;;;;;;;;4994190;28;8786;-79
2023/06/21 22:08:24;;;;;;;;;;;;;;;;;;4994261;28;8595;-79
2023/06/21 22:10:49;;;;;;;;;;;;;;;;;;4994257;28;7103;-80
2023/06/21 22:13:18;;;;;;;;;;;;;;;;;;4994083;28;8644;-79
2023/06/21 22:15:52;;;;;;;;;;;;;;;;;;4993215;28;8518;-79
2023/06/21 22:18:24;;;;;;;;;;;;;;;;;;4994339;28;7313;-79
2023/06/21 22:20:58;;;;;;;;;;;;;;;;;;4994203;28;9230;-80
2023/06/21 22:23:30;;;;;;;;;;;;;;;;;;4994033;28;8520;-80
2023/06/21 22:26:01;;;;;;;;;;;;;;;;;;4993870;28;7151;-80
2023/06/21 22:28:27;;;;;;;;;;;;;;;;;;4993814;28;7213;-80
2023/06/21 22:30:52;;;;;;;;;;;;;;;;;;4993322;28;7107;-80
2023/06/21 22:33:19;;;;;;;;;;;;;;;;;;4993799;28;8720;-79
2023/06/21 22:35:44;;;;;;;;;;;;;;;;;;4993540;28;8603;-80
2023/06/21 22:38:10;;;;;;;;;;;;;;;;;;4993721;28;8459;-80
2023/06/21 22:40:36;;;;;;;;;;;;;;;;;;4993521;28;8492;-79
2023/06/21 22:43:02;;;;;;;;;;;;;;;;;;4993561;28;8497;-79
2023/06/21 22:45:28;;;;;;;;;;;;;;;;;;4993629;28;8532;-79
2023/06/21 22:47:54;;;;;;;;;;;;;;;;;;4993378;28;8813;-78
2023/06/21 22:50:19;;;;;;;;;;;;;;;;;;4981583;28;8473;-79
2023/06/21 22:52:47;;;;;;;;;;;;;;;;;;4981878;28;8544;-80
2023/06/21 22:55:13;;;;;;;;;;;;;;;;;;4993090;28;9004;-80
2023/06/21 22:57:39;;;;;;;;;;;;;;;;;;4988477;28;7259;-80
2023/06/21 23:00:10;;;;;;;;;;;;;;;;;;4990765;28;8531;-80
2023/06/21 23:02:35;;;;;;;;;;;;;;;;;;4992568;28;7149;-80
2023/06/21 23:05:01;;;;;;;;;;;;;;;;;;4993876;28;8557;-80
2023/06/21 23:07:29;;;;;;;;;;;;;;;;;;4993779;28;8478;-80
2023/06/21 23:10:02;;;;;;;;;;;;;;;;;;4993944;28;7512;-80
2023/06/21 23:12:28;;;;;;;;;;;;;;;;;;4993550;28;8702;-80
2023/06/21 23:14:54;;;;;;;;;;;;;;;;;;4993726;28;8598;-80
2023/06/21 23:17:19;;;;;;;;;;;;;;;;;;4993695;28;8553;-80
2023/06/21 23:19:46;;;;;;;;;;;;;;;;;;4993789;28;8733;-79
2023/06/21 23:22:16;;;;;;;;;;;;;;;;;;4993862;28;8503;-79
2023/06/21 23:24:43;;;;;;;;;;;;;;;;;;4993772;28;8541;-79
2023/06/21 23:27:12;;;;;;;;;;;;;;;;;;4993453;28;8988;-80
2023/06/21 23:29:42;;;;;;;;;;;;;;;;;;4993634;28;8913;-80
2023/06/21 23:32:09;;;;;;;;;;;;;;;;;;4988260;28;8927;-81
2023/06/21 23:34:35;;;;;;;;;;;;;;;;;;4987418;28;8572;-81
2023/06/21 23:37:01;;;;;;;;;;;;;;;;;;4987939;28;8593;-80
2023/06/21 23:39:28;;;;;;;;;;;;;;;;;;4989825;28;8531;-81
2023/06/21 23:41:54;;;;;;;;;;;;;;;;;;4984359;28;8533;-81
2023/06/21 23:44:23;;;;;;;;;;;;;;;;;;4985424;28;8671;-82
2023/06/21 23:46:49;;;;;;;;;;;;;;;;;;4973858;28;7452;-81
2023/06/21 23:49:15;;;;;;;;;;;;;;;;;;4974112;28;8880;-81
2023/06/21 23:51:40;;;;;;;;;;;;;;;;;;4978112;28;7382;-79
2023/06/21 23:54:06;;;;;;;;;;;;;;;;;;4987354;28;8481;-80
2023/06/21 23:56:31;;;;;;;;;;;;;;;;;;4992571;28;8698;-80
2023/06/21 23:58:57;;;;;;;;;;;;;;;;;;4992157;28;8838;-80
